Time;durP1;ratioP1;P1;durP2;ratioP2;P2;SDS_P1;SDS_P2;PMS_P1;PMS_P2;Temp;Humidity;BMP_temperature;BMP_pressure;BME280_temperature;BME280_humidity;BME280_pressure;Samples;Min_cycle;Max_cycle;Signal;HPM_P1;HPM_P2
2022/06/08 00:00:15;;;;;;;1.10;1.00;;;;;22.40;100009.00;;;;2065490;28;20217;-57
2022/06/08 00:01:16;;;;;;;1.20;1.10;;;;;22.40;100009.00;;;;2077982;28;20205;-57
2022/06/08 00:02:16;;;;;;;1.20;1.10;;;;;22.40;100002.00;;;;2078101;28;20214;-56
2022/06/08 00:03:19;;;;;;;1.50;1.10;;;;;22.40;100010.00;;;;2071960;28;20206;-57
2022/06/08 00:04:23;;;;;;;1.30;1.20;;;;;22.40;100003.00;;;;2069761;28;20241;-58
2022/06/08 00:05:23;;;;;;;1.60;1.25;;;;;22.40;100007.00;;;;2069257;28;20292;-57
2022/06/08 00:06:23;;;;;;;1.17;1.07;;;;;22.40;100017.00;;;;2072706;28;20683;-57
2022/06/08 00:07:24;;;;;;;1.70;1.30;;;;;22.40;100012.00;;;;2077998;28;20587;-57
2022/06/08 00:08:24;;;;;;;1.10;1.00;;;;;22.40;100006.00;;;;2070774;28;20216;-57
2022/06/08 00:09:24;;;;;;;1.37;1.27;;;;;22.40;100009.00;;;;2070472;28;20206;-56
2022/06/08 00:10:25;;;;;;;1.30;1.20;;;;;22.40;100009.00;;;;2070342;28;20714;-56
2022/06/08 00:11:25;;;;;;;1.27;1.17;;;;;22.40;100010.00;;;;2070533;28;20729;-57
2022/06/08 00:12:26;;;;;;;1.53;1.40;;;;;22.40;100000.00;;;;2070517;28;20294;-56
2022/06/08 00:13:26;;;;;;;1.20;1.10;;;;;22.40;100002.00;;;;2070560;28;20238;-57
2022/06/08 00:14:26;;;;;;;1.37;1.27;;;;;22.40;100006.00;;;;2070346;28;20206;-57
2022/06/08 00:15:27;;;;;;;1.13;1.03;;;;;22.40;100002.00;;;;2070071;28;20210;-56
2022/06/08 00:16:27;;;;;;;1.27;1.17;;;;;22.40;100007.00;;;;2069904;28;20229;-56
2022/06/08 00:17:27;;;;;;;1.30;1.20;;;;;22.40;99998.00;;;;2069724;28;20730;-56
2022/06/08 00:18:28;;;;;;;1.40;1.30;;;;;22.40;99996.00;;;;2070406;28;20222;-57
2022/06/08 00:19:28;;;;;;;1.50;1.30;;;;;22.40;100002.00;;;;2070444;28;20234;-57
2022/06/08 00:20:28;;;;;;;1.80;1.37;;;;;22.40;100005.00;;;;2069865;28;20986;-57
2022/06/08 00:21:29;;;;;;;1.40;1.30;;;;;22.40;99999.00;;;;2069009;28;20665;-56
2022/06/08 00:22:29;;;;;;;1.30;1.20;;;;;22.40;99999.00;;;;2069615;28;20305;-58
2022/06/08 00:23:29;;;;;;;1.77;0.97;;;;;22.40;100000.00;;;;2070604;28;20218;-57
2022/06/08 00:24:30;;;;;;;1.37;1.27;;;;;22.40;99998.00;;;;2070353;28;20218;-57
2022/06/08 00:25:30;;;;;;;1.40;1.20;;;;;22.40;99998.00;;;;2068559;28;20886;-58
2022/06/08 00:26:31;;;;;;;1.10;1.00;;;;;22.40;99997.00;;;;2068607;28;20284;-57
2022/06/08 00:27:31;;;;;;;1.33;1.20;;;;;22.40;99996.00;;;;2074302;28;20224;-57
2022/06/08 00:28:32;;;;;;;1.20;1.10;;;;;22.40;99949.00;;;;2063536;28;20294;-57
2022/06/08 00:29:32;;;;;;;1.40;1.30;;;;;22.40;99987.00;;;;2065393;28;20297;-57
2022/06/08 00:30:32;;;;;;;1.30;1.20;;;;;22.40;99989.00;;;;2069399;28;20230;-57
2022/06/08 00:31:33;;;;;;;1.40;1.30;;;;;22.40;99990.00;;;;2077573;28;20220;-57
2022/06/08 00:32:33;;;;;;;1.23;1.13;;;;;22.40;99989.00;;;;2078459;28;20563;-59
2022/06/08 00:33:33;;;;;;;1.37;1.27;;;;;22.40;99991.00;;;;2074858;28;20205;-58
2022/06/08 00:34:34;;;;;;;1.20;1.10;;;;;22.40;99985.00;;;;2077773;28;20275;-57
2022/06/08 00:35:34;;;;;;;1.40;1.30;;;;;22.40;99985.00;;;;2069268;28;20252;-57
2022/06/08 00:36:35;;;;;;;1.13;1.03;;;;;22.40;99979.00;;;;2077701;28;20209;-57
2022/06/08 00:37:35;;;;;;;1.53;1.43;;;;;22.40;99986.00;;;;2078518;28;20221;-57
2022/06/08 00:38:35;;;;;;;1.20;1.10;;;;;22.40;99982.00;;;;2078417;28;20220;-57
2022/06/08 00:39:36;;;;;;;1.30;1.20;;;;;22.40;99979.00;;;;2077827;28;20598;-57
2022/06/08 00:41:04;;;;;;;1.43;1.30;;;;;22.40;99982.00;;;;2069772;28;20237;-57
2022/06/08 00:42:06;;;;;;;1.20;1.10;;;;;22.40;99979.00;;;;2074731;28;20263;-58
2022/06/08 00:43:07;;;;;;;1.20;1.10;;;;;22.40;99974.00;;;;2061164;28;20218;-57
2022/06/08 00:44:12;;;;;;;1.23;1.13;;;;;22.40;99973.00;;;;2061954;28;20222;-57
2022/06/08 00:45:14;;;;;;;1.83;1.33;;;;;22.40;99973.00;;;;2061674;28;20218;-57
2022/06/08 00:46:14;;;;;;;1.30;1.20;;;;;22.40;99973.00;;;;2057575;28;20203;-60
2022/06/08 00:47:21;;;;;;;1.17;1.07;;;;;22.40;99968.00;;;;2064942;28;20699;-58
2022/06/08 00:48:21;;;;;;;1.20;1.10;;;;;22.40;99974.00;;;;2062394;28;20223;-58
2022/06/08 00:49:22;;;;;;;1.33;1.20;;;;;22.40;99974.00;;;;2069840;28;20198;-57
2022/06/08 00:50:30;;;;;;;1.40;1.30;;;;;22.40;99968.00;;;;2069914;28;20222;-57
2022/06/08 00:51:31;;;;;;;1.50;1.40;;;;;22.40;99972.00;;;;2060778;28;20219;-58
2022/06/08 00:52:33;;;;;;;1.70;1.60;;;;;22.40;99971.00;;;;2062533;28;20222;-57
2022/06/08 00:53:42;;;;;;;1.23;1.10;;;;;22.40;99973.00;;;;2069809;28;20218;-57
2022/06/08 00:54:45;;;;;;;1.30;1.20;;;;;22.40;99974.00;;;;2069397;28;20218;-57
2022/06/08 00:55:45;;;;;;;1.30;1.20;;;;;22.40;99967.00;;;;2062590;28;20280;-58
2022/06/08 00:56:48;;;;;;;1.30;1.20;;;;;22.40;99968.00;;;;2069828;28;20666;-57
2022/06/08 00:57:59;;;;;;;1.25;1.15;;;;;22.40;99972.00;;;;2069869;28;20234;-57
2022/06/08 00:59:00;;;;;;;1.30;1.20;;;;;22.40;99961.00;;;;2060181;28;20301;-57
2022/06/08 01:00:06;;;;;;;1.30;1.07;;;;;22.40;99965.00;;;;2061446;28;20718;-57
2022/06/08 01:01:07;;;;;;;1.60;1.40;;;;;22.40;99969.00;;;;2069704;28;20221;-57
2022/06/08 01:02:07;;;;;;;1.33;1.23;;;;;22.40;99968.00;;;;2069867;28;20224;-57
2022/06/08 01:03:09;;;;;;;1.40;1.30;;;;;22.40;99960.00;;;;2068986;28;20249;-57
2022/06/08 01:04:15;;;;;;;2.00;1.10;;;;;22.40;99956.00;;;;2061322;28;20211;-58
2022/06/08 01:05:18;;;;;;;1.70;1.33;;;;;22.40;99969.00;;;;2069741;28;20273;-57
2022/06/08 01:06:20;;;;;;;1.50;1.40;;;;;22.40;99964.00;;;;2069041;28;20213;-59
2022/06/08 01:07:20;;;;;;;1.30;1.20;;;;;22.40;99961.00;;;;2053492;28;20221;-57
2022/06/08 01:08:44;;;;;;;1.60;1.50;;;;;22.40;99966.00;;;;2061322;28;20230;-57
2022/06/08 01:09:45;;;;;;;1.40;1.30;;;;;22.40;99966.00;;;;2064461;28;20224;-57
2022/06/08 01:10:46;;;;;;;1.50;1.40;;;;;22.40;99953.00;;;;2064286;28;20694;-57
2022/06/08 01:11:47;;;;;;;1.40;1.30;;;;;22.40;99956.00;;;;2061529;28;20218;-56
2022/06/08 01:12:47;;;;;;;1.37;1.27;;;;;22.40;99954.00;;;;2061297;28;20215;-58
2022/06/08 01:13:48;;;;;;;1.70;1.00;;;;;22.40;99961.00;;;;2053247;28;20220;-57
2022/06/08 01:14:48;;;;;;;1.30;1.20;;;;;22.40;99958.00;;;;2061425;28;20238;-57
2022/06/08 01:15:48;;;;;;;1.40;1.30;;;;;22.40;99961.00;;;;2067245;28;20516;-57
2022/06/08 01:17:04;;;;;;;1.47;1.30;;;;;22.40;99963.00;;;;2069437;28;20225;-58
2022/06/08 01:18:05;;;;;;;1.27;1.17;;;;;22.40;99954.00;;;;2069266;28;20223;-57
2022/06/08 01:19:05;;;;;;;1.20;1.10;;;;;22.40;99949.00;;;;2069079;28;20495;-57
2022/06/08 01:20:06;;;;;;;1.43;1.33;;;;;22.40;99949.00;;;;2070162;28;20207;-57
2022/06/08 01:21:22;;;;;;;1.20;1.10;;;;;22.40;99950.00;;;;2070003;28;20210;-57
2022/06/08 01:22:23;;;;;;;1.20;1.10;;;;;22.40;99947.00;;;;2070001;28;20464;-57
2022/06/08 01:23:23;;;;;;;1.30;1.20;;;;;22.40;99948.00;;;;2070071;28;20237;-57
2022/06/08 01:24:24;;;;;;;1.30;1.20;;;;;22.40;99946.00;;;;2070258;28;20973;-57
2022/06/08 01:25:24;;;;;;;1.77;1.50;;;;;22.40;99935.00;;;;2060592;28;20286;-57
2022/06/08 01:26:40;;;;;;;1.40;1.30;;;;;22.40;99941.00;;;;2061302;28;20533;-57
2022/06/08 01:27:59;;;;;;;1.55;1.45;;;;;22.40;99941.00;;;;2075869;28;20213;-57
2022/06/08 01:29:16;;;;;;;1.15;1.05;;;;;22.40;99944.00;;;;2069846;28;20268;-57
2022/06/08 01:30:19;;;;;;;1.42;1.33;;;;;22.40;99938.00;;;;2070249;28;20263;-57
2022/06/08 01:31:44;;;;;;;1.20;1.10;;;;;22.40;99931.00;;;;2066893;28;20244;-57
2022/06/08 01:32:56;;;;;;;1.52;1.42;;;;;22.40;99934.00;;;;2071799;28;20882;-58
2022/06/08 01:34:01;;;;;;;2.47;1.48;;;;;22.40;99943.00;;;;2071504;28;20218;-58
2022/06/08 01:35:08;;;;;;;1.55;1.45;;;;;22.40;99932.00;;;;2071526;28;20345;-57
2022/06/08 01:36:27;;;;;;;1.50;1.40;;;;;22.40;99927.00;;;;2070898;28;20214;-57
2022/06/08 01:37:27;;;;;;;1.50;1.40;;;;;22.40;99934.00;;;;2065155;28;20222;-57
2022/06/08 01:38:33;;;;;;;1.50;1.40;;;;;22.40;99922.00;;;;2071177;28;20230;-59
2022/06/08 01:40:01;;;;;;;1.38;1.27;;;;;22.20;99926.00;;;;2071916;28;20210;-57
2022/06/08 01:41:25;;;;;;;1.75;1.65;;;;;22.40;99923.00;;;;2071695;28;20265;-57
2022/06/08 01:42:49;;;;;;;1.33;1.23;;;;;22.40;99918.00;;;;2066123;28;20212;-56
2022/06/08 01:43:55;;;;;;;1.40;1.30;;;;;22.40;99919.00;;;;2067892;28;20237;-57
2022/06/08 01:46:31;;;;;;;1.55;1.45;;;;;22.40;99910.00;;;;2071722;28;20221;-57
2022/06/08 01:47:58;;;;;;;1.67;1.58;;;;;22.40;99908.00;;;;2070937;28;20218;-58
2022/06/08 01:49:17;;;;;;;1.58;1.48;;;;;22.40;99910.00;;;;2059749;28;20220;-57
2022/06/08 01:50:35;;;;;;;1.50;1.40;;;;;22.40;99912.00;;;;2071424;28;20757;-58
2022/06/08 01:52:00;;;;;;;1.63;1.52;;;;;22.40;99915.00;;;;2071506;28;20293;-58
2022/06/08 01:53:08;;;;;;;1.25;1.15;;;;;22.40;99916.00;;;;2071139;28;20214;-57
2022/06/08 01:54:33;;;;;;;1.50;1.40;;;;;22.40;99914.00;;;;2062145;28;20214;-57
2022/06/08 01:55:48;;;;;;;1.75;1.65;;;;;22.40;99913.00;;;;2065780;28;20218;-57
2022/06/08 01:56:53;;;;;;;1.58;1.48;;;;;22.40;99909.00;;;;2070557;28;20217;-57
2022/06/08 01:58:44;;;;;;;1.50;1.23;;;;;22.40;99910.00;;;;2070491;28;20917;-58
2022/06/08 02:00:03;;;;;;;1.30;1.20;;;;;22.40;99904.00;;;;2049599;28;20223;-58
2022/06/08 02:01:09;;;;;;;1.40;1.30;;;;;22.40;99910.00;;;;2049586;28;20227;-57
2022/06/08 02:02:12;;;;;;;1.60;1.50;;;;;22.40;99903.00;;;;2057463;28;20302;-57
2022/06/08 02:03:22;;;;;;;1.60;1.50;;;;;22.40;99901.00;;;;2062225;28;20222;-58
2022/06/08 02:04:31;;;;;;;1.42;1.33;;;;;22.40;99901.00;;;;2062425;28;20226;-58
2022/06/08 02:05:34;;;;;;;1.30;1.20;;;;;22.40;99906.00;;;;2069441;28;20218;-57
2022/06/08 02:06:41;;;;;;;1.38;1.27;;;;;22.40;99896.00;;;;2063044;28;20842;-57
2022/06/08 02:07:47;;;;;;;1.27;1.17;;;;;22.40;99896.00;;;;2063692;28;20772;-58
2022/06/08 02:09:04;;;;;;;2.25;1.50;;;;;22.40;99896.00;;;;2062788;28;20380;-57
2022/06/08 02:10:07;;;;;;;1.60;1.30;;;;;22.40;99900.00;;;;2059245;28;20238;-57
2022/06/08 02:11:13;;;;;;;1.50;1.40;;;;;22.40;99900.00;;;;2070820;28;20283;-57
2022/06/08 02:12:13;;;;;;;1.40;1.30;;;;;22.40;99887.00;;;;2071673;28;20225;-57
2022/06/08 02:13:30;;;;;;;1.60;1.50;;;;;22.40;99892.00;;;;2071018;28;20824;-57
2022/06/08 02:14:39;;;;;;;1.23;1.13;;;;;22.40;99884.00;;;;2063841;28;20715;-58
2022/06/08 02:15:43;;;;;;;1.45;1.35;;;;;22.40;99895.00;;;;2062424;28;20211;-57
2022/06/08 02:16:47;;;;;;;1.48;1.38;;;;;22.40;99899.00;;;;2047931;28;20232;-58
2022/06/08 02:17:50;;;;;;;1.58;1.48;;;;;22.40;99894.00;;;;2062696;28;20211;-58
2022/06/08 02:18:59;;;;;;;1.75;1.58;;;;;22.40;99893.00;;;;2061025;28;20723;-58
2022/06/08 02:20:25;;;;;;;1.60;1.50;;;;;22.40;99897.00;;;;2062193;28;20219;-58
2022/06/08 02:21:33;;;;;;;1.48;1.38;;;;;22.40;99894.00;;;;2065364;28;20226;-57
2022/06/08 02:22:38;;;;;;;2.53;1.25;;;;;22.40;99893.00;;;;2062266;28;20303;-58
2022/06/08 02:23:46;;;;;;;1.70;1.60;;;;;22.20;99890.00;;;;2062067;28;20215;-57
2022/06/08 02:25:06;;;;;;;1.35;1.23;;;;;22.40;99886.00;;;;2054696;28;20219;-57
2022/06/08 02:26:12;;;;;;;1.20;1.10;;;;;22.40;99895.00;;;;2051187;28;20211;-57
2022/06/08 02:27:19;;;;;;;1.50;1.40;;;;;22.30;99889.00;;;;2048784;28;20650;-58
2022/06/08 02:28:36;;;;;;;1.48;1.38;;;;;22.40;99877.00;;;;2053738;28;20302;-57
2022/06/08 02:29:41;;;;;;;1.60;1.40;;;;;22.40;99861.00;;;;2064315;28;20218;-57
2022/06/08 02:30:44;;;;;;;2.00;1.70;;;;;22.40;99871.00;;;;2062417;28;20211;-57
2022/06/08 02:31:54;;;;;;;1.63;1.52;;;;;22.40;99876.00;;;;2062662;28;20207;-57
2022/06/08 02:34:34;;;;;;;1.70;1.60;;;;;22.40;99886.00;;;;2061446;28;20230;-57
2022/06/08 02:35:38;;;;;;;1.58;1.48;;;;;22.40;99876.00;;;;2069800;28;20226;-56
2022/06/08 02:36:49;;;;;;;1.70;1.60;;;;;22.40;99875.00;;;;2070670;28;20371;-57
2022/06/08 02:37:52;;;;;;;1.35;1.25;;;;;22.40;99877.00;;;;2060997;28;20637;-62
2022/06/08 02:39:03;;;;;;;1.20;1.10;;;;;22.40;99873.00;;;;2063048;28;20230;-56
2022/06/08 02:40:14;;;;;;;1.50;1.40;;;;;22.40;99884.00;;;;2070087;28;20218;-56
2022/06/08 02:41:15;;;;;;;1.40;1.30;;;;;22.20;99844.00;;;;2062197;28;20207;-58
2022/06/08 02:42:26;;;;;;;1.50;1.40;;;;;22.40;99878.00;;;;2054791;28;20261;-57
2022/06/08 02:44:02;;;;;;;1.45;1.35;;;;;22.40;99871.00;;;;2054821;28;20454;-58
2022/06/08 02:45:09;;;;;;;1.30;1.20;;;;;22.40;99857.00;;;;2061629;28;20228;-59
2022/06/08 02:46:16;;;;;;;1.40;1.30;;;;;22.40;99874.00;;;;2060228;28;21045;-57
2022/06/08 02:47:30;;;;;;;1.52;1.42;;;;;22.40;99872.00;;;;2055669;28;20227;-56
2022/06/08 02:48:30;;;;;;;1.50;1.40;;;;;22.30;99867.00;;;;2070364;28;20737;-56
2022/06/08 02:49:34;;;;;;;1.30;1.20;;;;;22.30;99862.00;;;;2069718;28;20265;-56
2022/06/08 02:50:35;;;;;;;1.73;1.33;;;;;22.40;99867.00;;;;2070009;28;20268;-57
2022/06/08 02:51:35;;;;;;;1.33;1.23;;;;;22.40;99865.00;;;;2070097;28;20214;-56
2022/06/08 02:52:36;;;;;;;1.70;1.57;;;;;22.40;99866.00;;;;2061748;28;20215;-58
2022/06/08 02:53:36;;;;;;;1.50;1.40;;;;;22.40;99860.00;;;;2069986;28;20240;-58
2022/06/08 02:54:36;;;;;;;1.43;1.33;;;;;22.30;99851.00;;;;2086773;28;20758;-55
2022/06/08 02:55:58;;;;;;;1.40;1.30;;;;;22.40;99858.00;;;;2078299;28;20279;-56
2022/06/08 02:57:21;;;;;;;1.67;1.58;;;;;22.30;99859.00;;;;2078430;28;20209;-55
2022/06/08 02:58:29;;;;;;;1.30;1.20;;;;;22.30;99862.00;;;;2073188;28;20313;-56
2022/06/08 02:59:37;;;;;;;2.00;1.35;;;;;22.40;99865.00;;;;2071941;28;20313;-57
2022/06/08 03:00:45;;;;;;;1.40;1.30;;;;;22.30;99805.00;;;;2065551;28;20624;-58
2022/06/08 03:01:49;;;;;;;1.33;1.23;;;;;22.30;99856.00;;;;2061750;28;20222;-56
2022/06/08 03:02:58;;;;;;;1.70;1.60;;;;;22.30;99858.00;;;;2062610;28;20211;-56
2022/06/08 03:04:01;;;;;;;1.58;1.48;;;;;22.30;99847.00;;;;2063275;28;20221;-57
2022/06/08 03:05:12;;;;;;;1.60;1.50;;;;;22.30;99858.00;;;;2062174;28;20647;-56
2022/06/08 03:06:15;;;;;;;1.40;1.30;;;;;22.30;99841.00;;;;2056634;28;20239;-57
2022/06/08 03:07:18;;;;;;;1.50;1.40;;;;;22.30;99861.00;;;;2060074;28;20215;-56
2022/06/08 03:08:22;;;;;;;1.40;1.30;;;;;22.30;99857.00;;;;2062928;28;20203;-57
2022/06/08 03:09:22;;;;;;;1.50;1.40;;;;;22.30;99855.00;;;;2062446;28;20238;-56
2022/06/08 03:10:23;;;;;;;1.80;1.70;;;;;22.30;99852.00;;;;2062248;28;20576;-56
2022/06/08 03:11:24;;;;;;;1.73;1.30;;;;;22.30;99857.00;;;;2062321;28;20211;-55
2022/06/08 03:12:32;;;;;;;1.48;1.38;;;;;22.30;99848.00;;;;2060584;28;20261;-56
2022/06/08 03:13:49;;;;;;;1.45;1.35;;;;;22.30;99846.00;;;;2062088;28;20297;-57
2022/06/08 03:14:49;;;;;;;1.63;1.23;;;;;22.40;99841.00;;;;2063839;28;20615;-55
2022/06/08 03:15:55;;;;;;;1.60;1.50;;;;;22.30;99848.00;;;;2061356;28;20215;-56
2022/06/08 03:17:00;;;;;;;1.77;1.40;;;;;22.30;99849.00;;;;2070023;28;20616;-57
2022/06/08 03:18:01;;;;;;;1.50;1.40;;;;;22.40;99845.00;;;;2063134;28;20676;-57
2022/06/08 03:19:01;;;;;;;1.70;1.60;;;;;22.30;99841.00;;;;2062404;28;20258;-57
2022/06/08 03:20:04;;;;;;;1.30;1.20;;;;;22.40;99840.00;;;;2070178;28;20713;-57
2022/06/08 03:21:05;;;;;;;1.40;1.30;;;;;22.40;99840.00;;;;2066674;28;20218;-57
2022/06/08 03:22:05;;;;;;;1.50;1.40;;;;;22.40;99845.00;;;;2066785;28;20210;-57
2022/06/08 03:23:06;;;;;;;1.67;1.57;;;;;22.30;99837.00;;;;2070113;28;20214;-55
2022/06/08 03:24:06;;;;;;;1.60;1.50;;;;;22.30;99833.00;;;;2069573;28;20734;-56
2022/06/08 03:25:07;;;;;;;1.30;1.20;;;;;22.30;99838.00;;;;2070350;28;20293;-56
2022/06/08 03:26:07;;;;;;;1.40;1.30;;;;;22.30;99838.00;;;;2069838;28;20218;-57
2022/06/08 03:27:08;;;;;;;1.67;1.57;;;;;22.30;99827.00;;;;2070155;28;20294;-57
2022/06/08 03:28:08;;;;;;;1.50;1.40;;;;;22.30;99836.00;;;;2069785;28;20214;-57
2022/06/08 03:29:09;;;;;;;2.93;1.43;;;;;22.30;99827.00;;;;2070199;28;20261;-57
2022/06/08 03:30:10;;;;;;;1.50;1.40;;;;;22.30;99839.00;;;;2051499;28;20681;-62
2022/06/08 03:31:10;;;;;;;1.50;1.40;;;;;22.30;99847.00;;;;2062060;28;20221;-58
2022/06/08 03:32:10;;;;;;;1.30;1.20;;;;;22.30;99836.00;;;;2070870;28;20453;-56
2022/06/08 03:33:11;;;;;;;1.43;1.33;;;;;22.30;99843.00;;;;2070729;28;20578;-57
2022/06/08 03:34:11;;;;;;;1.60;1.50;;;;;22.30;99836.00;;;;2069614;28;20233;-58
2022/06/08 03:35:12;;;;;;;1.43;1.33;;;;;22.40;99836.00;;;;2069862;28;20256;-55
2022/06/08 03:36:12;;;;;;;1.37;1.27;;;;;22.30;99844.00;;;;2070377;28;20214;-56
2022/06/08 03:37:12;;;;;;;1.90;1.77;;;;;22.40;99833.00;;;;2070810;28;20221;-57
2022/06/08 03:38:13;;;;;;;2.07;1.60;;;;;22.40;99829.00;;;;2070593;28;20246;-56
2022/06/08 03:39:13;;;;;;;1.70;1.60;;;;;22.40;99846.00;;;;2070728;28;20564;-56
2022/06/08 03:40:14;;;;;;;1.40;1.30;;;;;22.40;99835.00;;;;2069770;28;20566;-56
2022/06/08 03:41:14;;;;;;;1.50;1.40;;;;;22.30;99834.00;;;;2061732;28;20721;-55
2022/06/08 03:42:15;;;;;;;1.30;1.20;;;;;22.30;99835.00;;;;2069978;28;20221;-55
2022/06/08 03:43:16;;;;;;;1.50;1.40;;;;;22.30;99834.00;;;;2069731;28;20269;-56
2022/06/08 03:44:16;;;;;;;1.33;1.23;;;;;22.30;99842.00;;;;2069892;28;20210;-55
2022/06/08 03:45:16;;;;;;;1.40;1.30;;;;;22.30;99849.00;;;;2070624;28;20417;-57
2022/06/08 03:46:17;;;;;;;1.63;1.53;;;;;22.30;99835.00;;;;2069603;28;20214;-59
2022/06/08 03:47:19;;;;;;;1.50;1.40;;;;;22.30;99841.00;;;;2061777;28;20694;-56
2022/06/08 03:48:19;;;;;;;1.90;1.67;;;;;22.30;99846.00;;;;2061732;28;20855;-55
2022/06/08 03:49:20;;;;;;;1.70;1.60;;;;;22.40;99839.00;;;;2053469;28;20245;-57
2022/06/08 03:50:24;;;;;;;1.67;1.47;;;;;22.30;99841.00;;;;2061843;28;20207;-57
2022/06/08 03:51:24;;;;;;;1.48;1.38;;;;;22.30;99813.00;;;;2071797;28;20252;-56
2022/06/08 03:52:29;;;;;;;1.70;1.60;;;;;22.30;99826.00;;;;2069876;28;20214;-57
2022/06/08 03:53:34;;;;;;;1.65;1.48;;;;;22.30;99838.00;;;;2062366;28;20569;-56
2022/06/08 03:54:37;;;;;;;1.20;1.10;;;;;22.30;99826.00;;;;2070691;28;20257;-56
2022/06/08 03:55:38;;;;;;;1.25;1.15;;;;;22.40;99834.00;;;;2075394;28;20225;-61
2022/06/08 03:56:40;;;;;;;1.37;1.27;;;;;22.30;99824.00;;;;2078114;28;20217;-57
2022/06/08 03:57:44;;;;;;;1.50;1.40;;;;;22.30;99810.00;;;;2074221;28;20233;-59
2022/06/08 03:58:44;;;;;;;1.65;1.55;;;;;22.30;99844.00;;;;2066432;28;20222;-59
2022/06/08 03:59:45;;;;;;;1.40;1.30;;;;;22.30;99818.00;;;;2070181;28;20246;-58
2022/06/08 04:00:45;;;;;;;1.47;1.37;;;;;22.30;99831.00;;;;2063428;28;20245;-56
2022/06/08 04:01:45;;;;;;;1.57;1.47;;;;;22.30;99831.00;;;;2074043;28;20265;-56
2022/06/08 04:02:46;;;;;;;1.40;1.30;;;;;22.30;99834.00;;;;2064788;28;20257;-61
2022/06/08 04:03:50;;;;;;;1.40;1.30;;;;;22.30;99839.00;;;;2062499;28;20233;-57
2022/06/08 04:04:51;;;;;;;1.40;1.30;;;;;22.30;99838.00;;;;2078928;28;20301;-58
2022/06/08 04:05:51;;;;;;;1.60;1.50;;;;;22.30;99841.00;;;;2074215;28;20206;-56
2022/06/08 04:06:51;;;;;;;1.50;1.40;;;;;22.30;99838.00;;;;2077674;28;21017;-55
2022/06/08 04:07:51;;;;;;;1.40;1.30;;;;;22.30;99843.00;;;;2076332;28;20725;-57
2022/06/08 04:08:52;;;;;;;1.33;1.23;;;;;22.30;99849.00;;;;2075682;28;20202;-58
2022/06/08 04:09:52;;;;;;;1.70;1.40;;;;;22.30;99840.00;;;;2077789;28;20210;-59
2022/06/08 04:10:53;;;;;;;1.50;1.40;;;;;22.30;99844.00;;;;2073511;28;20256;-60
2022/06/08 04:11:53;;;;;;;1.47;1.37;;;;;22.40;99839.00;;;;2074309;28;20215;-58
2022/06/08 04:12:55;;;;;;;1.67;1.30;;;;;22.30;99829.00;;;;2078132;28;20213;-58
2022/06/08 04:13:55;;;;;;;1.50;1.40;;;;;22.30;99826.00;;;;2074632;28;20222;-58
2022/06/08 04:14:56;;;;;;;1.43;1.33;;;;;22.30;99826.00;;;;2068621;28;20230;-57
2022/06/08 04:15:56;;;;;;;1.30;1.20;;;;;22.30;99824.00;;;;2073623;28;20233;-57
2022/06/08 04:16:56;;;;;;;1.60;1.50;;;;;22.30;99827.00;;;;2079546;28;20260;-56
2022/06/08 04:17:57;;;;;;;1.57;1.47;;;;;22.30;99827.00;;;;2075863;28;20209;-58
2022/06/08 04:18:57;;;;;;;1.50;1.40;;;;;22.40;99826.00;;;;2072693;28;20217;-58
2022/06/08 04:19:57;;;;;;;1.50;1.40;;;;;22.40;99826.00;;;;2074277;28;20218;-57
2022/06/08 04:20:59;;;;;;;1.40;1.30;;;;;22.30;99830.00;;;;2066211;28;20265;-56
2022/06/08 04:21:59;;;;;;;1.30;1.20;;;;;22.40;99833.00;;;;2075316;28;20206;-58
2022/06/08 04:23:00;;;;;;;1.60;1.50;;;;;22.30;99826.00;;;;2078886;28;20209;-58
2022/06/08 04:24:00;;;;;;;1.37;1.27;;;;;22.40;99823.00;;;;2072808;28;20582;-56
2022/06/08 04:25:01;;;;;;;3.20;1.60;;;;;22.40;99828.00;;;;2062553;28;20262;-57
2022/06/08 04:26:01;;;;;;;1.40;1.30;;;;;22.40;99833.00;;;;2066850;28;20270;-59
2022/06/08 04:27:02;;;;;;;1.70;1.60;;;;;22.40;99831.00;;;;2077028;28;20209;-59
2022/06/08 04:28:02;;;;;;;1.57;1.47;;;;;22.40;99831.00;;;;2070260;28;20321;-58
2022/06/08 04:29:03;;;;;;;1.17;1.07;;;;;22.40;99830.00;;;;2069620;28;20210;-58
2022/06/08 04:30:04;;;;;;;1.30;1.20;;;;;22.40;99830.00;;;;2066066;28;20345;-55
2022/06/08 04:31:04;;;;;;;1.30;1.20;;;;;22.40;99830.00;;;;2070380;28;20552;-57
2022/06/08 04:32:06;;;;;;;1.43;1.33;;;;;22.40;99832.00;;;;2069102;28;20605;-57
2022/06/08 04:33:06;;;;;;;1.40;1.30;;;;;22.40;99840.00;;;;2053785;28;20208;-57
2022/06/08 04:34:08;;;;;;;2.80;1.60;;;;;22.40;99830.00;;;;2061441;28;20211;-58
2022/06/08 04:35:08;;;;;;;1.60;1.42;;;;;22.40;99837.00;;;;2077570;28;20566;-59
2022/06/08 04:36:09;;;;;;;1.53;1.43;;;;;22.40;99836.00;;;;2077470;28;20228;-58
2022/06/08 04:37:09;;;;;;;1.43;1.33;;;;;22.40;99841.00;;;;2069562;28;20229;-58
2022/06/08 04:38:09;;;;;;;1.43;1.33;;;;;22.40;99842.00;;;;2069961;28;20690;-58
2022/06/08 04:39:11;;;;;;;2.57;1.40;;;;;22.40;99839.00;;;;2070169;28;20222;-54
2022/06/08 04:40:14;;;;;;;1.48;1.38;;;;;22.40;99836.00;;;;2069203;28;20214;-58
2022/06/08 04:41:14;;;;;;;1.35;1.25;;;;;22.40;99837.00;;;;2069173;28;20218;-56
2022/06/08 04:42:15;;;;;;;1.60;1.50;;;;;22.40;99830.00;;;;2068838;28;20222;-56
2022/06/08 04:43:15;;;;;;;1.30;1.20;;;;;22.40;99844.00;;;;2060791;28;20221;-57
2022/06/08 04:44:15;;;;;;;1.73;1.63;;;;;22.30;99836.00;;;;2068642;28;20250;-57
2022/06/08 04:45:16;;;;;;;1.47;1.37;;;;;22.30;99842.00;;;;2069811;28;20296;-55
2022/06/08 04:46:17;;;;;;;1.53;1.43;;;;;22.40;99846.00;;;;2068911;28;20207;-56
2022/06/08 04:47:17;;;;;;;1.27;1.17;;;;;22.40;99842.00;;;;2069692;28;20209;-58
2022/06/08 04:48:19;;;;;;;1.47;1.37;;;;;22.40;99846.00;;;;2070283;28;20222;-56
2022/06/08 04:49:20;;;;;;;1.20;1.10;;;;;22.40;99850.00;;;;2069483;28;20214;-57
2022/06/08 04:50:21;;;;;;;1.20;1.10;;;;;22.40;99847.00;;;;2069835;28;20216;-56
2022/06/08 04:51:22;;;;;;;1.50;1.40;;;;;22.40;99848.00;;;;2061134;28;20454;-62
2022/06/08 04:52:23;;;;;;;1.35;1.25;;;;;22.40;99844.00;;;;2051923;28;20231;-56
2022/06/08 04:53:23;;;;;;;1.67;1.40;;;;;22.40;99844.00;;;;2053784;28;20219;-57
2022/06/08 04:54:24;;;;;;;1.87;1.20;;;;;22.40;99843.00;;;;2061347;28;21004;-55
2022/06/08 04:55:24;;;;;;;1.20;1.10;;;;;22.40;99844.00;;;;2069204;28;20226;-55
2022/06/08 04:56:24;;;;;;;1.30;1.20;;;;;22.40;99823.00;;;;2068995;28;20225;-55
2022/06/08 04:57:25;;;;;;;1.53;1.37;;;;;22.40;99835.00;;;;2061356;28;20293;-56
2022/06/08 04:58:26;;;;;;;1.43;1.33;;;;;22.30;99835.00;;;;2069558;28;20229;-58
2022/06/08 04:59:27;;;;;;;1.70;1.60;;;;;22.40;99844.00;;;;2069446;28;20214;-57
2022/06/08 05:00:27;;;;;;;1.50;1.40;;;;;22.40;99835.00;;;;2077760;28;20695;-57
2022/06/08 05:01:28;;;;;;;1.87;1.40;;;;;22.40;99832.00;;;;2076380;28;20836;-58
2022/06/08 05:02:44;;;;;;;1.40;1.30;;;;;22.40;99837.00;;;;2069028;28;20345;-57
2022/06/08 05:03:44;;;;;;;1.40;1.30;;;;;22.40;99832.00;;;;2077598;28;20323;-56
2022/06/08 05:04:45;;;;;;;2.10;1.40;;;;;22.40;99835.00;;;;2077422;28;20218;-56
2022/06/08 05:05:45;;;;;;;1.43;1.33;;;;;22.40;99836.00;;;;2076438;28;20209;-57
2022/06/08 05:06:47;;;;;;;1.37;1.27;;;;;22.40;99831.00;;;;2077936;28;20216;-58
2022/06/08 05:07:48;;;;;;;1.67;1.20;;;;;22.40;99829.00;;;;2077608;28;20219;-58
2022/06/08 05:08:48;;;;;;;1.37;1.27;;;;;22.40;99827.00;;;;2069635;28;20218;-56
2022/06/08 05:09:48;;;;;;;1.33;1.23;;;;;22.30;99830.00;;;;2067777;28;20341;-57
2022/06/08 05:10:50;;;;;;;1.30;1.20;;;;;22.40;99824.00;;;;2069763;28;20244;-57
2022/06/08 05:11:50;;;;;;;1.40;1.30;;;;;22.30;99829.00;;;;2069189;28;20300;-57
2022/06/08 05:12:50;;;;;;;1.93;1.50;;;;;22.40;99828.00;;;;2053155;28;20211;-58
2022/06/08 05:13:51;;;;;;;1.53;1.40;;;;;22.30;99828.00;;;;2058833;28;20210;-58
2022/06/08 05:14:51;;;;;;;1.03;0.93;;;;;22.30;99823.00;;;;2067288;28;20218;-58
2022/06/08 05:15:51;;;;;;;1.27;1.17;;;;;22.40;99825.00;;;;2068908;28;20690;-58
2022/06/08 05:16:52;;;;;;;1.50;1.30;;;;;22.40;99819.00;;;;2068788;28;20217;-55
2022/06/08 05:17:52;;;;;;;1.30;1.20;;;;;22.30;99824.00;;;;2069849;28;20497;-58
2022/06/08 05:18:52;;;;;;;1.53;1.43;;;;;22.40;99819.00;;;;2072212;28;20229;-57
2022/06/08 05:19:53;;;;;;;1.30;1.20;;;;;22.40;99820.00;;;;2077952;28;20278;-58
2022/06/08 05:20:54;;;;;;;1.50;1.40;;;;;22.30;99812.00;;;;2073409;28;20753;-58
2022/06/08 05:21:54;;;;;;;1.30;1.20;;;;;22.40;99817.00;;;;2069224;28;20218;-58
2022/06/08 05:22:54;;;;;;;1.30;1.20;;;;;22.40;99809.00;;;;2070201;28;20548;-55